Time;durP1;ratioP1;P1;durP2;ratioP2;P2;SDS_P1;SDS_P2;PMS_P1;PMS_P2;Temp;Humidity;BMP_temperature;BMP_pressure;BME280_temperature;BME280_humidity;BME280_pressure;Samples;Min_cycle;Max_cycle;Signal;HPM_P1;HPM_P2
2021/03/24 00:01:22;;;;;;;6.37;4.87;;;;;;;0.79;100.00;96358.59;5113998;28;20196;-88
2021/03/24 00:03:50;;;;;;;5.03;4.63;;;;;;;0.94;100.00;96354.22;5116078;28;20719;-88
2021/03/24 00:06:18;;;;;;;6.07;4.80;;;;;;;1.01;100.00;96352.91;5116388;28;20204;-88
2021/03/24 00:08:46;;;;;;;4.80;4.40;;;;;;;1.12;100.00;96349.63;5116377;28;20655;-87
2021/03/24 00:11:16;;;;;;;6.13;5.37;;;;;;;1.15;100.00;96345.06;5116083;28;20203;-88
2021/03/24 00:13:43;;;;;;;6.77;5.67;;;;;;;1.14;100.00;96353.78;5115987;28;20192;-87
2021/03/24 00:16:11;;;;;;;5.83;5.33;;;;;;;0.92;100.00;96359.47;5115999;28;20595;-87
2021/03/24 00:18:38;;;;;;;8.00;6.17;;;;;;;0.89;100.00;96359.66;5115592;28;20206;-87
2021/03/24 00:21:06;;;;;;;6.43;5.43;;;;;;;0.73;100.00;96363.31;5115916;28;20648;-88
2021/03/24 00:23:34;;;;;;;8.83;6.77;;;;;;;0.55;100.00;96366.09;5115643;28;20191;-87
2021/03/24 00:26:01;;;;;;;8.80;6.87;;;;;;;0.38;100.00;96358.56;5115934;28;20188;-87
2021/03/24 00:28:28;;;;;;;8.17;6.67;;;;;;;0.26;100.00;96336.06;5115711;28;20196;-87
2021/03/24 00:30:55;;;;;;;13.17;7.33;;;;;;;0.31;100.00;96297.81;5115685;28;20195;-88
2021/03/24 00:33:25;;;;;;;9.10;7.67;;;;;;;0.28;100.00;96254.06;5115974;28;20591;-87
2021/03/24 00:35:54;;;;;;;9.77;7.07;;;;;;;0.14;100.00;96229.06;5115786;28;20223;-87
2021/03/24 00:38:22;;;;;;;9.13;7.13;;;;;;;-0.03;100.00;96202.53;5115750;28;20195;-88
2021/03/24 00:40:52;;;;;;;8.10;6.63;;;;;;;-0.10;100.00;96159.13;5115737;28;20203;-87
2021/03/24 00:43:19;;;;;;;8.13;7.30;;;;;;;-0.08;100.00;96119.31;5115360;28;20188;-87
2021/03/24 00:45:46;;;;;;;7.87;7.07;;;;;;;-0.09;100.00;96078.91;5115504;28;20192;-88
2021/03/24 00:48:19;;;;;;;9.60;7.97;;;;;;;0.13;100.00;96011.16;5115662;28;20221;-86
2021/03/24 00:50:46;;;;;;;9.10;8.07;;;;;;;0.32;100.00;95958.25;5115489;28;20184;-88
2021/03/24 00:53:13;;;;;;;9.87;8.47;;;;;;;0.55;100.00;95918.72;5115061;27;20211;-87
2021/03/24 00:55:40;;;;;;;8.77;7.40;;;;;;;0.58;100.00;95882.31;5115367;28;20640;-88
2021/03/24 00:58:08;;;;;;;9.70;7.90;;;;;;;0.32;100.00;95878.13;5115305;28;20687;-87
2021/03/24 01:00:38;;;;;;;9.37;8.43;;;;;;;0.17;100.00;95862.75;5115388;28;20241;-88
2021/03/24 01:03:05;;;;;;;9.00;8.07;;;;;;;0.20;100.00;95818.56;5115000;28;20664;-87
2021/03/24 01:05:33;;;;;;;8.97;8.07;;;;;;;0.12;100.00;95784.69;5115057;27;20191;-87
2021/03/24 01:08:02;;;;;;;9.17;8.27;;;;;;;0.10;100.00;95752.13;5114871;28;20256;-88
2021/03/24 01:10:34;;;;;;;9.97;8.47;;;;;;;0.06;100.00;95701.59;5114991;28;20203;-87
2021/03/24 01:13:01;;;;;;;10.30;9.10;;;;;;;0.22;100.00;95656.47;5115076;28;20555;-88
2021/03/24 01:15:29;;;;;;;15.30;12.20;;;;;;;0.32;100.00;95622.22;5114799;28;20220;-87
2021/03/24 01:17:57;;;;;;;13.70;12.00;;;;;;;0.27;100.00;95582.94;5115060;28;20203;-88
2021/03/24 01:20:27;;;;;;;17.17;13.93;;;;;;;0.08;100.00;95568.78;5114695;28;20260;-88
2021/03/24 01:22:55;;;;;;;21.70;15.53;;;;;;;0.14;100.00;95519.25;5115100;28;20192;-88
2021/03/24 01:25:22;;;;;;;12.10;10.10;;;;;;;0.24;100.00;95467.69;5114550;28;20245;-87
2021/03/24 01:27:50;;;;;;;12.07;8.73;;;;;;;0.25;100.00;95429.78;5114562;28;20195;-87
2021/03/24 01:30:18;;;;;;;9.40;7.33;;;;;;;0.22;100.00;95408.38;5114598;28;20240;-88
2021/03/24 01:32:47;;;;;;;7.83;7.03;;;;;;;0.23;100.00;95367.84;5114689;28;20198;-88
2021/03/24 01:35:15;;;;;;;6.63;6.03;;;;;;;0.38;100.00;95299.47;5114520;28;20223;-87
2021/03/24 01:37:43;;;;;;;7.37;6.67;;;;;;;0.47;100.00;95270.31;5114182;28;20195;-88
2021/03/24 01:40:13;;;;;;;7.80;6.67;;;;;;;0.38;100.00;95255.53;5114314;28;20745;-88
2021/03/24 01:42:40;;;;;;;7.73;6.83;;;;;;;0.38;100.00;95229.69;5114184;28;20184;-89
2021/03/24 01:46:01;;;;;;;6.57;5.97;;;;;;;0.29;100.00;95181.31;5114210;28;20296;-87
2021/03/24 01:48:29;;;;;;;8.20;7.07;;;;;;;0.26;100.00;95141.97;5031478;28;20206;-87
2021/03/24 01:50:56;;;;;;;8.03;7.23;;;;;;;0.29;100.00;95124.44;5031811;28;20214;-86
2021/03/24 01:53:23;;;;;;;8.07;7.27;;;;;;;0.26;100.00;95111.78;5068888;28;20301;-87
2021/03/24 01:55:50;;;;;;;7.87;7.10;;;;;;;0.33;100.00;95076.72;5114150;28;20215;-87
2021/03/24 01:58:17;;;;;;;9.97;7.90;;;;;;;0.41;100.00;95047.66;5113806;28;20232;-87
2021/03/24 02:00:48;;;;;;;7.07;6.20;;;;;;;0.43;100.00;95025.91;5114309;28;20218;-87
2021/03/24 02:03:15;;;;;;;6.83;6.23;;;;;;;0.43;100.00;95009.59;5113956;28;20611;-87
2021/03/24 02:05:44;;;;;;;6.83;6.23;;;;;;;0.32;100.00;95005.31;5114165;28;20564;-87
2021/03/24 02:08:17;;;;;;;8.10;7.30;;;;;;;0.32;100.00;94979.47;5113811;28;20206;-87
2021/03/24 02:10:49;;;;;;;9.43;8.00;;;;;;;0.40;100.00;94955.56;5113937;28;20666;-87
2021/03/24 02:13:20;;;;;;;7.40;6.67;;;;;;;0.21;100.00;94964.88;5114077;28;20180;-87
2021/03/24 02:15:51;;;;;;;10.53;8.27;;;;;;;0.21;100.00;94961.47;5113572;28;20214;-87
2021/03/24 02:18:20;;;;;;;8.73;7.60;;;;;;;0.28;100.00;94930.72;5113656;28;20207;-88
2021/03/24 02:20:53;;;;;;;9.03;8.13;;;;;;;0.40;100.00;94899.50;5113634;28;20198;-88
2021/03/24 02:23:44;;;;;;;10.80;7.70;;;;;;;0.26;100.00;94873.22;5113211;28;20187;-88
2021/03/24 02:26:18;;;;;;;9.93;7.90;;;;;;;0.60;100.00;94835.78;5113411;28;20180;-87
2021/03/24 02:28:50;;;;;;;8.90;7.10;;;;;;;0.43;100.00;94846.75;5113526;28;20180;-88
2021/03/24 02:31:21;;;;;;;7.70;6.50;;;;;;;0.52;100.00;94843.38;5113842;28;20562;-87
2021/03/24 02:33:50;;;;;;;8.87;7.27;;;;;;;0.43;100.00;94846.75;5113167;28;20183;-87
2021/03/24 02:36:20;;;;;;;7.30;6.57;;;;;;;0.41;100.00;94861.56;5112984;28;20223;-88
2021/03/24 02:38:49;;;;;;;7.90;7.10;;;;;;;0.53;100.00;94845.00;5113213;28;20202;-87
2021/03/24 02:41:18;;;;;;;7.17;6.47;;;;;;;0.41;100.00;94858.97;5113163;28;20199;-87
2021/03/24 02:43:49;;;;;;;7.63;6.80;;;;;;;0.59;100.00;94841.91;5113068;28;20199;-87
2021/03/24 02:46:17;;;;;;;6.57;5.67;;;;;;;0.34;100.00;94868.19;5113249;28;20248;-88
2021/03/24 02:48:44;;;;;;;5.13;4.63;;;;;;;0.61;100.00;94852.09;5113141;28;20719;-88
2021/03/24 02:51:14;;;;;;;6.47;4.10;;;;;;;0.35;100.00;94878.44;5113088;28;20202;-87
2021/03/24 02:53:42;;;;;;;4.77;4.37;;;;;;;0.51;100.00;94875.34;5113103;28;20245;-87
2021/03/24 02:56:12;;;;;;;4.10;3.70;;;;;;;0.45;100.00;94879.28;5113045;28;20226;-87
2021/03/24 02:58:39;;;;;;;4.37;3.97;;;;;;;0.48;100.00;94891.09;5113653;28;20191;-87
2021/03/24 03:01:15;;;;;;;3.07;2.87;;;;;;;0.35;100.00;94895.69;5112974;28;20191;-88
2021/03/24 03:03:47;;;;;;;3.13;2.93;;;;;;;0.34;100.00;94899.22;5112958;28;20227;-88
2021/03/24 03:06:20;;;;;;;5.23;3.00;;;;;;;0.32;100.00;94901.94;5113099;28;20195;-88
2021/03/24 03:08:51;;;;;;;3.07;2.87;;;;;;;0.28;100.00;94902.31;5112900;28;20237;-87
2021/03/24 03:11:23;;;;;;;2.77;2.57;;;;;;;0.23;100.00;94897.53;5113020;28;20260;-87
2021/03/24 03:13:56;;;;;;;2.70;2.50;;;;;;;0.26;100.00;94891.31;5113252;28;20180;-87
2021/03/24 03:16:31;;;;;;;2.40;2.20;;;;;;;0.31;100.00;94899.47;5112863;28;20215;-87
2021/03/24 03:19:06;;;;;;;2.63;2.43;;;;;;;0.32;100.00;94890.78;5112911;28;20240;-87
2021/03/24 03:21:39;;;;;;;2.50;2.30;;;;;;;0.40;100.00;94903.88;5112839;28;20205;-87
2021/03/24 03:24:10;;;;;;;2.20;2.00;;;;;;;0.54;100.00;94908.69;5113060;28;20188;-88
2021/03/24 03:26:39;;;;;;;2.57;2.37;;;;;;;0.53;100.00;94914.00;5113196;28;20561;-87
2021/03/24 03:29:09;;;;;;;2.40;2.20;;;;;;;0.38;100.00;94931.59;5113015;28;20618;-87
2021/03/24 03:31:40;;;;;;;2.20;2.10;;;;;;;0.49;100.00;94921.19;5112833;28;20233;-88
2021/03/24 03:34:10;;;;;;;2.23;2.03;;;;;;;0.10;100.00;94949.41;5112731;28;20191;-87
2021/03/24 03:36:38;;;;;;;2.50;2.30;;;;;;;0.34;100.00;94927.66;5114374;28;20207;-87
2021/03/24 03:39:09;;;;;;;2.50;2.30;;;;;;;0.14;100.00;94935.31;5116918;27;20195;-88
2021/03/24 03:41:37;;;;;;;2.23;2.13;;;;;;;0.07;100.00;94929.03;5116842;28;20192;-88
2021/03/24 03:44:06;;;;;;;2.10;2.00;;;;;;;0.15;100.00;94899.97;5116545;28;20200;-87
2021/03/24 03:46:39;;;;;;;1.70;1.60;;;;;;;0.07;100.00;94894.59;5116630;28;20236;-88
2021/03/24 03:49:07;;;;;;;1.87;1.70;;;;;;;0.09;100.00;94880.59;5116519;28;20186;-88
2021/03/24 03:51:42;;;;;;;2.27;2.07;;;;;;;-0.02;100.00;94857.44;5116357;28;20195;-87
2021/03/24 03:54:13;;;;;;;2.80;2.60;;;;;;;-0.07;100.00;94846.66;5116574;28;20187;-87
2021/03/24 03:56:49;;;;;;;5.10;4.60;;;;;;;-0.01;100.00;94817.75;5116233;28;20210;-88
2021/03/24 03:59:23;;;;;;;11.33;8.10;;;;;;;0.28;100.00;94786.03;5116302;28;20187;-87
2021/03/24 04:01:55;;;;;;;9.07;6.73;;;;;;;0.34;100.00;94764.81;5116430;28;20578;-88
2021/03/24 04:04:27;;;;;;;9.50;7.60;;;;;;;0.47;100.00;94770.56;5115995;27;20789;-88
2021/03/24 04:06:59;;;;;;;7.37;6.27;;;;;;;0.40;100.00;94797.91;5116110;28;20188;-87
2021/03/24 04:09:28;;;;;;;4.47;4.10;;;;;;;0.17;100.00;94831.72;5116040;28;20679;-88
2021/03/24 04:11:55;;;;;;;3.80;3.23;;;;;;;0.03;100.00;94842.38;5116294;28;20203;-87
2021/03/24 04:14:27;;;;;;;6.17;5.30;;;;;;;-0.04;100.00;94849.00;5116245;28;20637;-88
2021/03/24 04:16:55;;;;;;;3.47;3.17;;;;;;;0.20;100.00;94815.94;5116180;28;20188;-87
2021/03/24 04:19:26;;;;;;;2.60;2.43;;;;;;;0.41;100.00;94815.84;5115955;28;20199;-88
2021/03/24 04:21:59;;;;;;;2.73;2.53;;;;;;;0.37;100.00;94855.03;5116157;28;20203;-88
2021/03/24 04:24:29;;;;;;;3.20;2.90;;;;;;;0.28;100.00;94907.47;5116066;28;20568;-87
2021/03/24 04:26:59;;;;;;;3.23;2.93;;;;;;;0.29;100.00;94940.16;5115637;28;20219;-87
2021/03/24 04:29:31;;;;;;;3.33;3.03;;;;;;;0.20;100.00;94975.31;5115700;28;20180;-88
2021/03/24 04:32:01;;;;;;;3.93;3.17;;;;;;;0.39;100.00;95015.97;5115510;28;20187;-87
2021/03/24 04:34:30;;;;;;;3.73;3.40;;;;;;;0.42;100.00;95052.72;5115354;28;20260;-87
2021/03/24 04:37:02;;;;;;;3.47;3.17;;;;;;;0.39;100.00;95093.50;5115996;28;20610;-88
2021/03/24 04:39:34;;;;;;;3.83;3.53;;;;;;;0.33;100.00;95127.59;5115456;28;20547;-87
2021/03/24 04:42:14;;;;;;;;;;;;;;;;;;;;;
2021/03/24 04:44:43;;;;;;;3.70;3.07;;;;;;;0.37;100.00;95162.59;5113425;28;20199;-87
2021/03/24 04:47:15;;;;;;;3.00;2.70;;;;;;;0.20;100.00;95210.44;5115066;28;20622;-87
2021/03/24 04:49:47;;;;;;;3.40;2.87;;;;;;;0.31;100.00;95219.94;5115059;28;20188;-87
2021/03/24 04:52:16;;;;;;;7.33;4.97;;;;;;;0.33;100.00;95238.75;5115116;28;20652;-87
2021/03/24 04:54:45;;;;;;;12.60;8.70;;;;;;;0.51;100.00;95250.19;5114532;28;20198;-87
2021/03/24 04:57:15;;;;;;;9.40;7.57;;;;;;;0.60;100.00;95270.16;5115309;28;20221;-87
2021/03/24 04:59:45;;;;;;;5.60;4.33;;;;;;;0.49;100.00;95311.56;5102292;28;20730;-82
2021/03/24 05:02:15;;;;;;;5.60;5.00;;;;;;;0.31;100.00;95351.75;5093596;28;20673;-82
2021/03/24 05:04:51;;;;;;;6.00;5.40;;;;;;;0.44;100.00;95384.28;5113816;28;20261;-87
2021/03/24 05:07:37;;;;;;;7.40;6.70;;;;;;;0.31;100.00;95431.88;5115139;28;20191;-87
2021/03/24 05:10:08;;;;;;;7.50;6.73;;;;;;;0.41;100.00;95469.00;5115054;28;20183;-88
2021/03/24 05:12:42;;;;;;;16.33;12.17;;;;;;;0.57;100.00;95489.38;5114556;28;20195;-87
2021/03/24 05:15:17;;;;;;;10.10;9.07;;;;;;;0.61;100.00;95521.81;5114614;28;20203;-87
2021/03/24 05:17:45;;;;;;;6.00;5.43;;;;;;;0.55;100.00;95559.28;5115085;28;20553;-88
2021/03/24 05:20:21;;;;;;;5.40;4.83;;;;;;;0.57;100.00;95585.03;5115125;28;20207;-87
2021/03/24 05:22:49;;;;;;;6.60;5.60;;;;;;;0.52;100.00;95623.31;5114854;28;20683;-87
2021/03/24 05:25:21;;;;;;;6.53;5.93;;;;;;;0.56;100.00;95633.34;5115031;28;20191;-87
2021/03/24 05:27:50;;;;;;;12.40;10.27;;;;;;;0.56;100.00;95661.78;5114489;28;20187;-88
2021/03/24 05:30:23;;;;;;;8.27;7.00;;;;;;;0.42;100.00;95687.84;5114608;28;20675;-87
2021/03/24 05:33:03;;;;;;;5.77;4.90;;;;;;;0.54;100.00;95715.38;5114878;27;20635;-87
2021/03/24 05:35:42;;;;;;;8.87;7.30;;;;;;;0.61;100.00;95734.69;5114419;28;20214;-87
2021/03/24 05:38:17;;;;;;;18.53;14.03;;;;;;;0.72;100.00;95752.00;5114862;28;20183;-87
2021/03/24 05:40:57;;;;;;;95.97;50.30;;;;;;;0.61;100.00;95776.06;5114353;28;20180;-87
2021/03/24 05:43:51;;;;;;;41.47;28.60;;;;;;;0.42;100.00;95814.50;5114385;27;20214;-88
2021/03/24 05:46:32;;;;;;;23.47;17.37;;;;;;;0.22;100.00;95836.56;5112081;28;20282;-87
2021/03/24 05:49:15;;;;;;;7.53;6.70;;;;;;;0.09;100.00;95862.41;5114326;28;20266;-88
2021/03/24 05:51:58;;;;;;;2.63;2.30;;;;;;;-0.19;100.00;95891.06;5114542;28;20704;-87
2021/03/24 05:54:50;;;;;;;2.07;1.97;;;;;;;-0.12;100.00;95906.03;5114162;28;20617;-88
2021/03/24 05:57:32;;;;;;;3.50;3.03;;;;;;;-0.21;100.00;95932.47;5114035;28;20187;-88
2021/03/24 06:00:17;;;;;;;3.77;3.47;;;;;;;-0.29;100.00;95963.13;5113572;28;20594;-89
2021/03/24 06:02:52;;;;;;;3.20;3.00;;;;;;;-0.43;100.00;96002.75;5114047;28;20187;-87
2021/03/24 06:05:25;;;;;;;4.03;3.40;;;;;;;-0.46;100.00;96028.75;5113739;28;20223;-87
2021/03/24 06:08:34;;;;;;;4.63;4.23;;;;;;;-0.49;100.00;96042.69;5113913;28;20266;-87
2021/03/24 06:11:28;;;;;;;3.47;3.13;;;;;;;-0.56;100.00;96076.72;5113825;28;20264;-87
2021/03/24 06:14:31;;;;;;;3.50;3.20;;;;;;;-0.80;100.00;96103.13;5114085;28;20233;-87
2021/03/24 06:17:40;;;;;;;4.23;3.83;;;;;;;-0.71;100.00;96140.47;5114444;28;20691;-87
2021/03/24 06:20:16;;;;;;;4.33;3.97;;;;;;;-1.08;100.00;96189.06;5065005;28;20195;-87
2021/03/24 06:23:10;;;;;;;4.27;3.80;;;;;;;-1.10;100.00;96215.91;5113544;28;20180;-88
2021/03/24 06:25:42;;;;;;;6.10;3.83;;;;;;;-1.17;100.00;96232.66;5113664;28;20183;-88
2021/03/24 06:28:37;;;;;;;4.30;4.00;;;;;;;-1.20;100.00;96247.38;5113479;28;20183;-87
2021/03/24 06:31:33;;;;;;;5.57;4.23;;;;;;;-0.98;100.00;96257.28;5087102;28;20199;-87
2021/03/24 06:34:39;;;;;;;3.13;2.77;;;;;;;-0.98;100.00;96275.31;5113550;28;20199;-88
2021/03/24 06:37:26;;;;;;;3.90;3.60;;;;;;;-1.13;100.00;96293.44;5113569;28;20186;-88
2021/03/24 06:40:25;;;;;;;3.80;3.37;;;;;;;-0.97;100.00;96307.97;5113396;28;20201;-87
2021/03/24 06:43:16;;;;;;;4.47;4.07;;;;;;;-1.11;100.00;96328.56;5113461;28;20187;-87
2021/03/24 06:45:51;;;;;;;3.90;3.03;;;;;;;-0.99;100.00;96345.91;5113462;28;20191;-88
2021/03/24 06:48:39;;;;;;;4.33;3.60;;;;;;;-0.76;100.00;96359.28;5113571;28;20179;-88
2021/03/24 06:51:47;;;;;;;3.30;3.10;;;;;;;-0.90;100.00;96357.47;5113824;28;20192;-89
2021/03/24 06:54:27;;;;;;;2.93;2.73;;;;;;;-0.85;100.00;96363.19;5031170;28;20245;-88
2021/03/24 06:57:22;;;;;;;5.33;4.23;;;;;;;-0.59;100.00;96372.06;5101205;28;20245;-88
2021/03/24 07:00:13;;;;;;;3.63;3.23;;;;;;;-0.50;100.00;96374.09;5113276;28;20226;-88
2021/03/24 07:03:23;;;;;;;5.63;3.50;;;;;;;-0.68;100.00;96376.91;5113177;28;20636;-88
2021/03/24 07:06:13;;;;;;;6.93;6.20;;;;;;;-0.81;100.00;96384.50;5083827;28;20282;-88
2021/03/24 07:08:58;;;;;;;4.97;3.67;;;;;;;-0.65;100.00;96376.75;5072322;28;20636;-88
2021/03/24 07:11:58;;;;;;;3.07;2.80;;;;;;;-0.52;100.00;96346.69;5113865;28;20681;-88
2021/03/24 07:14:56;;;;;;;4.50;4.13;;;;;;;-0.53;100.00;96347.63;5083941;28;20203;-88
2021/03/24 07:17:50;;;;;;;5.07;3.93;;;;;;;-0.56;100.00;96340.88;5116686;28;20187;-88
2021/03/24 07:20:59;;;;;;;3.27;2.97;;;;;;;-0.44;100.00;96354.03;5117675;28;20629;-89
2021/03/24 07:23:48;;;;;;;4.87;3.37;;;;;;;-0.56;100.00;96358.94;5117127;27;20187;-88
2021/03/24 07:26:26;;;;;;;3.00;2.50;;;;;;;-0.42;100.00;96373.63;5117180;28;20683;-88
2021/03/24 07:29:07;;;;;;;2.07;1.97;;;;;;;-0.58;100.00;96391.78;5117458;28;20263;-87
2021/03/24 07:31:58;;;;;;;3.50;2.23;;;;;;;-0.54;100.00;96380.34;5117483;28;20705;-89
2021/03/24 07:34:43;;;;;;;92.77;38.90;;;;;;;-0.69;100.00;96401.03;5117509;28;20623;-89
2021/03/24 07:37:47;;;;;;;12.77;9.27;;;;;;;-0.56;100.00;96414.91;5117269;28;20230;-88
2021/03/24 07:40:40;;;;;;;4.50;3.97;;;;;;;-0.56;100.00;96425.25;5117027;28;20180;-88
2021/03/24 07:43:19;;;;;;;5.07;4.50;;;;;;;-0.56;100.00;96433.81;5117383;28;20208;-89
2021/03/24 07:46:08;;;;;;;4.00;3.53;;;;;;;-0.63;100.00;96454.91;5117218;28;20188;-89
2021/03/24 07:48:52;;;;;;;7.00;5.90;;;;;;;-0.53;100.00;96469.78;5116854;28;20282;-89
2021/03/24 07:51:50;;;;;;;4.33;3.27;;;;;;;-0.54;100.00;96475.88;5116831;28;20183;-89
2021/03/24 07:54:22;;;;;;;7.80;3.90;;;;;;;-0.65;100.00;96496.31;5116427;28;20195;-89
2021/03/24 07:56:57;;;;;;;4.63;3.30;;;;;;;-0.41;100.00;96516.53;5116624;27;20212;-88
2021/03/24 07:59:35;;;;;;;1.90;1.80;;;;;;;-0.47;100.00;96517.69;5117065;28;20194;-89
2021/03/24 08:02:20;;;;;;;2.50;2.30;;;;;;;-0.21;100.00;96521.38;5116734;28;20184;-89
2021/03/24 08:05:08;;;;;;;3.50;2.97;;;;;;;-0.12;100.00;96510.53;5116869;28;20355;-89
2021/03/24 08:07:41;;;;;;;11.37;6.83;;;;;;;-0.02;100.00;96508.25;5116711;28;20260;-89
2021/03/24 08:10:23;;;;;;;5.63;3.23;;;;;;;0.02;100.00;96517.50;5116661;28;20194;-88
2021/03/24 08:13:14;;;;;;;2.60;2.40;;;;;;;-0.13;100.00;96516.63;5116461;28;20191;-88
2021/03/24 08:16:04;;;;;;;5.43;4.73;;;;;;;0.01;100.00;96502.09;5116453;28;20199;-89
2021/03/24 08:18:56;;;;;;;21.37;12.57;;;;;;;0.22;100.00;96501.69;5116128;28;20187;-88
2021/03/24 08:21:30;;;;;;;3.10;2.63;;;;;;;0.18;100.00;96507.97;5115865;28;20667;-88
2021/03/24 08:24:24;;;;;;;2.77;2.17;;;;;;;0.20;100.00;96511.25;5116232;28;20692;-88
2021/03/24 08:26:55;;;;;;;5.17;4.30;;;;;;;-0.01;100.00;96520.25;5116429;28;20258;-88
2021/03/24 08:29:32;;;;;;;4.57;2.90;;;;;;;-0.03;100.00;96522.13;5116042;28;20215;-87
2021/03/24 08:32:53;;;;;;;2.03;1.83;;;;;;;-0.10;100.00;96506.13;5115987;28;20215;-88
2021/03/24 08:35:57;;;;;;;2.03;1.87;;;;;;;0.90;100.00;96492.47;5090942;28;20215;-87
2021/03/24 08:38:49;;;;;;;2.13;2.00;;;;;;;1.78;100.00;96459.31;5097600;28;20218;-88
2021/03/24 08:41:58;;;;;;;3.57;2.87;;;;;;;2.76;100.00;96411.19;5115842;27;20180;-87
2021/03/24 08:44:29;;;;;;;2.30;2.10;;;;;;;2.84;100.00;96355.22;5116211;28;20257;-88
2021/03/24 08:47:00;;;;;;;2.53;2.17;;;;;;;3.09;100.00;96312.75;5115627;28;20222;-88
2021/03/24 08:49:31;;;;;;;2.87;2.60;;;;;;;2.46;100.00;96274.06;5115640;28;20212;-88
2021/03/24 08:52:09;;;;;;;2.70;2.50;;;;;;;2.09;100.00;96311.19;5116045;28;20188;-89
2021/03/24 08:54:51;;;;;;;3.80;2.60;;;;;;;1.25;100.00;96357.41;5115496;28;20226;-89
2021/03/24 08:57:33;;;;;;;2.73;2.33;;;;;;;1.36;100.00;96384.28;5115493;28;20188;-89
2021/03/24 09:00:13;;;;;;;3.23;3.03;;;;;;;2.02;100.00;96392.91;5115398;28;20187;-89
2021/03/24 09:02:48;;;;;;;2.60;2.20;;;;;;;2.59;100.00;96379.47;5115228;28;20188;-87
2021/03/24 09:05:25;;;;;;;2.90;2.70;;;;;;;2.93;100.00;96353.72;5115170;28;20314;-88
2021/03/24 09:08:14;;;;;;;3.00;2.60;;;;;;;3.20;100.00;96321.53;5115142;28;20241;-87
2021/03/24 09:10:52;;;;;;;2.43;2.23;;;;;;;3.41;100.00;96247.19;5112838;28;20648;-89
2021/03/24 09:13:28;;;;;;;3.53;2.80;;;;;;;4.16;100.00;96245.84;5115385;28;20191;-88
2021/03/24 09:16:31;;;;;;;3.00;2.70;;;;;;;3.92;100.00;96219.97;5114981;28;20207;-88
2021/03/24 09:19:17;;;;;;;2.53;2.33;;;;;;;2.96;100.00;96228.06;5074497;27;20235;-88
2021/03/24 09:21:53;;;;;;;4.53;3.50;;;;;;;1.70;100.00;96218.00;5115231;27;20188;-89
2021/03/24 09:24:46;;;;;;;4.23;3.57;;;;;;;1.72;100.00;96255.84;5115364;28;20243;-89
2021/03/24 09:27:35;;;;;;;6.53;4.63;;;;;;;1.79;100.00;96266.63;5115356;28;20187;-89
2021/03/24 09:30:47;;;;;;;7.83;4.37;;;;;;;1.59;100.00;96286.94;5114825;28;20215;-88
2021/03/24 09:33:45;;;;;;;2.70;2.50;;;;;;;1.77;100.00;96286.63;5110985;28;20226;-89
2021/03/24 09:36:49;;;;;;;2.87;2.60;;;;;;;2.34;100.00;96288.72;5114827;28;20728;-88
2021/03/24 09:39:21;;;;;;;1.87;1.77;;;;;;;1.98;100.00;96276.56;5114844;28;20188;-89
2021/03/24 09:41:55;;;;;;;3.73;2.50;;;;;;;2.38;100.00;96300.53;5114909;28;20194;-89
2021/03/24 09:44:30;;;;;;;3.57;2.23;;;;;;;2.19;100.00;96307.97;5114505;28;20660;-90
2021/03/24 09:46:57;;;;;;;2.37;2.17;;;;;;;1.74;100.00;96315.34;5114489;28;20184;-90
2021/03/24 09:49:32;;;;;;;3.30;2.10;;;;;;;1.56;100.00;96338.97;5114751;28;20188;-89
2021/03/24 09:52:21;;;;;;;1.83;1.73;;;;;;;1.62;100.00;96361.03;5114375;28;20179;-90
2021/03/24 09:55:05;;;;;;;3.30;2.20;;;;;;;1.58;100.00;96360.38;5114694;27;20195;-89
2021/03/24 09:57:55;;;;;;;2.87;2.50;;;;;;;1.34;100.00;96362.00;5114741;28;20179;-90
2021/03/24 10:00:23;;;;;;;6.77;4.67;;;;;;;1.41;100.00;96381.38;5114332;28;20219;-89
2021/03/24 10:02:56;;;;;;;2.10;1.90;;;;;;;1.58;100.00;96373.34;5114488;28;20192;-89
2021/03/24 10:05:31;;;;;;;3.20;2.80;;;;;;;1.56;100.00;96380.41;5114076;28;20723;-89
2021/03/24 10:08:01;;;;;;;2.80;1.70;;;;;;;1.46;100.00;96378.53;5114587;28;20183;-89
2021/03/24 10:10:31;;;;;;;4.27;2.93;;;;;;;1.53;100.00;96406.50;5114475;28;20214;-88
2021/03/24 10:13:05;;;;;;;3.40;3.10;;;;;;;1.63;100.00;96402.38;5114371;28;20636;-89
2021/03/24 10:15:38;;;;;;;3.07;2.73;;;;;;;1.46;100.00;96425.13;5113837;28;20207;-88
2021/03/24 10:18:14;;;;;;;3.93;2.40;;;;;;;1.38;100.00;96441.16;5114370;28;20191;-89
2021/03/24 10:20:53;;;;;;;2.70;2.50;;;;;;;1.25;100.00;96450.63;5114122;28;20263;-89
2021/03/24 10:23:27;;;;;;;2.33;2.13;;;;;;;0.63;100.00;96508.75;5113887;28;20629;-89
2021/03/24 10:25:58;;;;;;;2.80;1.90;;;;;;;0.51;100.00;96576.72;5113796;28;20180;-88
2021/03/24 10:28:36;;;;;;;2.10;1.93;;;;;;;0.73;100.00;96617.69;5113876;28;20186;-88
2021/03/24 10:31:12;;;;;;;2.13;1.93;;;;;;;0.74;100.00;96649.56;5114296;28;20614;-88
2021/03/24 10:33:46;;;;;;;5.57;2.70;;;;;;;1.90;100.00;96664.13;5113751;28;20196;-88
2021/03/24 10:36:20;;;;;;;2.97;2.40;;;;;;;3.23;100.00;96653.78;5113700;28;20204;-88
2021/03/24 10:38:52;;;;;;;5.33;3.30;;;;;;;3.94;100.00;96616.75;5113899;28;20176;-89
2021/03/24 10:41:29;;;;;;;6.10;3.73;;;;;;;4.07;100.00;96587.28;5113442;28;20233;-89
2021/03/24 10:44:12;;;;;;;2.93;2.50;;;;;;;4.29;100.00;96551.78;5113580;28;20191;-89
2021/03/24 10:46:46;;;;;;;8.70;6.03;;;;;;;4.60;100.00;96523.44;5113474;28;20220;-89
2021/03/24 10:49:19;;;;;;;3.60;3.30;;;;;;;4.30;100.00;96490.16;5113639;28;20192;-89
2021/03/24 10:52:02;;;;;;;26.13;15.23;;;;;;;4.84;100.00;96501.72;5113865;28;20180;-89
2021/03/24 10:54:32;;;;;;;10.40;7.50;;;;;;;4.08;100.00;96474.47;5113609;28;20183;-88
2021/03/24 10:57:18;;;;;;;4.13;2.20;;;;;;;2.98;100.00;96475.41;5113634;28;20228;-88
2021/03/24 10:59:52;;;;;;;3.10;2.80;;;;;;;3.65;100.00;96488.03;5113892;28;20672;-88
2021/03/24 11:02:30;;;;;;;5.53;3.93;;;;;;;4.47;100.00;96484.53;5114152;28;20203;-89
2021/03/24 11:05:05;;;;;;;4.80;4.33;;;;;;;5.20;100.00;96474.59;5113185;28;20235;-88
2021/03/24 11:07:42;;;;;;;3.60;3.23;;;;;;;5.06;100.00;96464.41;5113487;28;20188;-88
2021/03/24 11:10:40;;;;;;;2.17;1.93;;;;;;;4.86;100.00;96400.88;5113263;28;20686;-88
2021/03/24 11:13:17;;;;;;;4.20;2.70;;;;;;;4.03;100.00;96371.63;5113711;28;20191;-88
2021/03/24 11:16:05;;;;;;;3.20;2.80;;;;;;;3.54;100.00;96372.69;5113009;28;20698;-88
2021/03/24 11:18:39;;;;;;;4.23;3.83;;;;;;;3.25;100.00;96397.34;5113103;28;20199;-87
2021/03/24 11:21:24;;;;;;;2.43;2.23;;;;;;;2.44;100.00;96390.91;5113056;28;20192;-88
2021/03/24 11:23:54;;;;;;;4.10;3.70;;;;;;;2.40;100.00;96441.34;5109845;28;20663;-87
2021/03/24 11:27:05;;;;;;;9.67;4.53;;;;;;;2.68;100.00;96475.78;5113119;28;20199;-88
2021/03/24 11:29:36;;;;;;;15.57;7.03;;;;;;;3.38;100.00;96489.03;5112825;28;20180;-87
2021/03/24 11:32:07;;;;;;;15.50;7.60;;;;;;;4.50;100.00;96476.50;5112915;28;20183;-88
2021/03/24 11:34:41;;;;;;;7.60;5.10;;;;;;;4.61;100.00;96433.19;5113104;28;20206;-87
2021/03/24 11:37:29;;;;;;;3.73;3.40;;;;;;;4.94;100.00;96377.66;5112593;28;20239;-87
2021/03/24 11:40:06;;;;;;;3.30;2.77;;;;;;;4.29;100.00;96355.78;5113092;28;20184;-88
2021/03/24 11:42:36;;;;;;;2.07;1.90;;;;;;;4.05;100.00;96320.31;5112869;28;20199;-87
2021/03/24 11:45:11;;;;;;;2.33;1.93;;;;;;;3.87;100.00;96298.31;5113366;28;20597;-89
2021/03/24 11:48:01;;;;;;;3.93;2.60;;;;;;;3.12;100.00;96285.72;5112825;28;20187;-89
2021/03/24 11:50:33;;;;;;;2.57;2.37;;;;;;;4.13;100.00;96313.72;5112722;28;20190;-86
2021/03/24 11:53:08;;;;;;;2.63;1.97;;;;;;;3.79;100.00;96311.06;5112711;28;20640;-88
2021/03/24 11:55:56;;;;;;;2.00;1.90;;;;;;;4.53;100.00;96290.59;5112553;28;20200;-87
2021/03/24 11:58:41;;;;;;;2.50;2.30;;;;;;;5.00;100.00;96262.56;5115633;28;20205;-88
2021/03/24 12:01:29;;;;;;;1.87;1.77;;;;;;;4.63;100.00;96207.41;5116633;28;20215;-87
2021/03/24 12:04:06;;;;;;;2.57;2.00;;;;;;;3.57;100.00;96297.09;5113300;27;20270;-88
2021/03/24 12:06:46;;;;;;;6.80;4.10;;;;;;;2.59;100.00;96470.28;5116539;28;20183;-87
2021/03/24 12:09:21;;;;;;;2.83;2.53;;;;;;;1.56;100.00;96608.38;5116576;28;20333;-87
2021/03/24 12:11:49;;;;;;;4.53;3.53;;;;;;;0.88;100.00;96693.59;5116028;28;20183;-87
2021/03/24 12:14:19;;;;;;;10.97;8.27;;;;;;;0.89;100.00;96773.72;5116123;28;20238;-88
2021/03/24 12:16:50;;;;;;;3.63;2.87;;;;;;;0.36;100.00;96818.91;5116344;28;20277;-88
2021/03/24 12:19:35;;;;;;;7.13;5.93;;;;;;;0.40;100.00;96848.03;5116054;27;20648;-88